Time;durP1;ratioP1;P1;durP2;ratioP2;P2;SDS_P1;SDS_P2;PMS_P1;PMS_P2;Temp;Humidity;BMP_temperature;BMP_pressure;BME280_temperature;BME280_humidity;BME280_pressure;Samples;Min_cycle;Max_cycle;Signal;HPM_P1;HPM_P2
2022/04/15 00:00:56;;;;;;;11.65;7.15;;;;;;;16.43;59.25;101874.13;5058993;28;20508;-61
2022/04/15 00:03:23;;;;;;;7.87;3.90;;;;;;;16.63;58.81;101873.50;5045932;28;20064;-61
2022/04/15 00:05:52;;;;;;;6.35;2.95;;;;;;;16.51;59.27;101872.53;5054867;28;20056;-58
2022/04/15 00:08:22;;;;;;;10.27;3.70;;;;;;;16.71;58.83;101869.94;5066322;28;20052;-62
2022/04/15 00:10:49;;;;;;;7.43;3.38;;;;;;;16.41;59.65;101873.63;5054367;28;20500;-60
2022/04/15 00:13:24;;;;;;;10.52;3.33;;;;;;;16.25;60.33;101869.66;5054096;28;20057;-60
2022/04/15 00:15:51;;;;;;;10.63;3.38;;;;;;;16.28;60.45;101871.81;5054296;28;20052;-61
2022/04/15 00:18:19;;;;;;;6.22;3.25;;;;;;;16.57;59.44;101866.47;5054872;28;20056;-60
2022/04/15 00:20:46;;;;;;;14.15;3.88;;;;;;;16.24;60.29;101868.03;5064286;28;20049;-60
2022/04/15 00:23:13;;;;;;;7.57;3.42;;;;;;;16.07;61.02;101867.16;5054299;28;20056;-55
2022/04/15 00:25:40;;;;;;;6.25;2.97;;;;;;;15.93;61.32;101875.63;5058454;28;20053;-61
2022/04/15 00:28:07;;;;;;;13.35;3.10;;;;;;;16.15;61.12;101880.25;5053735;28;20068;-60
2022/04/15 00:30:35;;;;;;;5.63;2.80;;;;;;;16.13;60.86;101871.41;5059929;28;20121;-61
2022/04/15 00:33:02;;;;;;;8.30;3.10;;;;;;;16.10;61.40;101869.28;5053792;28;20420;-61
2022/04/15 00:35:30;;;;;;;9.35;3.03;;;;;;;16.27;60.50;101867.38;5058466;28;20151;-59
2022/04/15 00:37:58;;;;;;;8.75;3.05;;;;;;;16.28;60.73;101876.53;5056766;28;20056;-60
2022/04/15 00:40:25;;;;;;;8.27;3.15;;;;;;;15.98;61.72;101877.41;5058642;28;20044;-60
2022/04/15 00:42:52;;;;;;;8.35;3.38;;;;;;;16.24;60.86;101869.97;5053726;28;20514;-59
2022/04/15 00:45:20;;;;;;;7.07;3.33;;;;;;;16.27;60.59;101869.31;5062959;28;20048;-60
2022/04/15 00:47:58;;;;;;;10.27;3.22;;;;;;;15.91;61.67;101877.06;5053911;28;20503;-59
2022/04/15 00:50:29;;;;;;;6.97;3.20;;;;;;;16.04;61.63;101876.16;5066442;28;20151;-57
2022/04/15 00:52:59;;;;;;;11.43;3.65;;;;;;;15.89;61.51;101874.59;5054059;28;20063;-61
2022/04/15 00:55:27;;;;;;;;;;;;;;;15.84;61.82;101877.53;5054264;28;20128;-61
2022/04/15 00:58:00;;;;;;;8.25;3.45;;;;;;;15.89;61.49;101876.56;5058485;28;19921;-60
2022/04/15 01:00:29;;;;;;;7.25;3.35;;;;;;;16.13;61.00;101877.78;5064161;28;20053;-60
2022/04/15 01:02:59;;;;;;;8.60;3.85;;;;;;;16.01;61.11;101880.38;5052229;28;20049;-58
2022/04/15 01:05:27;;;;;;;9.35;4.10;;;;;;;15.86;61.74;101871.66;5066463;28;20059;-60
2022/04/15 01:07:56;;;;;;;8.20;4.13;;;;;;;16.00;61.53;101877.91;5058877;28;20045;-60
2022/04/15 01:10:25;;;;;;;10.15;4.07;;;;;;;16.25;61.15;101877.19;5052287;28;20045;-61
2022/04/15 01:12:56;;;;;;;8.63;3.27;;;;;;;16.14;61.68;101873.06;5058504;28;20056;-61
2022/04/15 01:15:43;;;;;;;10.75;4.28;;;;;;;16.16;62.77;101873.56;5054331;28;20049;-62
2022/04/15 01:18:11;;;;;;;9.63;4.28;;;;;;;15.99;63.48;101874.31;5052840;28;20049;-61
2022/04/15 01:20:39;;;;;;;9.75;4.47;;;;;;;15.58;63.57;101882.16;5054023;28;20052;-61
2022/04/15 01:23:07;;;;;;;11.02;4.55;;;;;;;15.83;63.18;101883.41;5053696;28;20056;-60
2022/04/15 01:25:35;;;;;;;9.57;4.50;;;;;;;15.78;62.46;101878.78;5035447;28;21697;-61
2022/04/15 01:28:03;;;;;;;7.30;4.40;;;;;;;15.97;62.57;101881.34;5062397;28;20057;-57
2022/04/15 01:30:30;;;;;;;10.30;4.20;;;;;;;15.90;63.63;101878.22;5056007;28;20064;-59
2022/04/15 01:32:58;;;;;;;9.02;4.10;;;;;;;15.66;65.23;101881.34;5049412;28;20049;-56
2022/04/15 01:35:31;;;;;;;8.10;3.67;;;;;;;15.73;65.54;101879.78;5053775;28;20057;-61
2022/04/15 01:37:59;;;;;;;8.75;4.05;;;;;;;15.83;65.71;101878.66;5043558;28;20052;-61
2022/04/15 01:40:27;;;;;;;7.65;4.00;;;;;;;16.04;64.86;101871.38;5048099;28;20060;-61
2022/04/15 01:42:54;;;;;;;11.00;3.70;;;;;;;15.72;65.80;101880.91;5057875;28;20503;-59
2022/04/15 01:45:22;;;;;;;10.80;4.45;;;;;;;15.71;66.08;101884.81;5053225;28;20053;-62
2022/04/15 01:47:50;;;;;;;9.32;3.95;;;;;;;15.64;66.54;101878.91;5060601;28;20087;-61
2022/04/15 01:50:18;;;;;;;10.43;4.38;;;;;;;15.85;65.90;101884.72;5052182;28;20057;-61
2022/04/15 01:52:45;;;;;;;10.10;4.13;;;;;;;15.95;65.53;101875.28;5061967;28;20385;-62
2022/04/15 01:55:12;;;;;;;10.48;4.10;;;;;;;15.55;66.71;101882.78;5056867;28;20052;-61
2022/04/15 01:57:40;;;;;;;9.00;4.43;;;;;;;15.63;67.00;101879.22;5075330;28;20064;-62
2022/04/15 02:00:08;;;;;;;7.60;3.92;;;;;;;15.62;66.61;101872.84;5057025;28;20048;-61
2022/04/15 02:02:41;;;;;;;11.95;5.55;;;;;;;15.72;66.63;101880.91;5059986;28;20071;-61
2022/04/15 02:05:08;;;;;;;10.30;3.92;;;;;;;15.49;67.15;101875.72;5057026;28;20053;-61
2022/04/15 02:07:35;;;;;;;10.00;4.25;;;;;;;15.54;67.23;101873.63;5056763;28;20598;-61
2022/04/15 02:10:04;;;;;;;8.50;3.92;;;;;;;15.52;67.37;101872.28;5057437;28;20049;-61
2022/04/15 02:12:32;;;;;;;11.40;5.60;;;;;;;15.43;67.96;101877.81;5058495;28;20040;-61
2022/04/15 02:14:59;;;;;;;10.38;3.92;;;;;;;15.50;67.40;101877.34;5056771;28;20140;-61
2022/04/15 02:17:26;;;;;;;9.18;4.13;;;;;;;15.44;67.60;101882.25;5056550;28;20045;-57
2022/04/15 02:19:53;;;;;;;9.63;4.05;;;;;;;15.25;68.75;101878.00;5059514;28;20052;-56
2022/04/15 02:22:21;;;;;;;11.25;4.20;;;;;;;15.22;69.02;101886.97;5056296;28;20062;-54
2022/04/15 02:24:48;;;;;;;7.85;3.75;;;;;;;15.33;68.58;101882.78;5055959;28;20060;-55
2022/04/15 02:27:15;;;;;;;12.30;4.20;;;;;;;15.35;68.46;101878.56;5057195;28;20053;-57
2022/04/15 02:29:42;;;;;;;11.38;4.00;;;;;;;15.30;68.58;101889.78;5068406;28;20056;-58
2022/04/15 02:32:10;;;;;;;9.50;4.05;;;;;;;15.27;68.48;101879.28;5056242;28;20041;-52
2022/04/15 02:34:37;;;;;;;8.98;3.90;;;;;;;15.38;68.24;101882.63;5056163;28;20049;-58
2022/04/15 02:37:04;;;;;;;10.82;4.63;;;;;;;15.35;68.63;101881.31;5056261;28;20057;-58
2022/04/15 02:39:32;;;;;;;11.50;4.38;;;;;;;14.99;69.80;101879.75;5067724;28;20060;-60
2022/04/15 02:42:00;;;;;;;8.45;3.90;;;;;;;15.15;69.22;101881.81;5052171;28;20049;-61
2022/04/15 02:44:29;;;;;;;7.00;3.95;;;;;;;15.04;69.43;101880.47;5062288;28;20072;-60
2022/04/15 02:46:58;;;;;;;9.00;4.30;;;;;;;15.24;69.00;101884.66;5056177;28;20055;-60
2022/04/15 02:49:27;;;;;;;10.57;4.00;;;;;;;15.23;68.93;101880.25;5055982;28;20049;-60
2022/04/15 02:51:56;;;;;;;9.95;4.03;;;;;;;15.06;69.43;101883.75;5056279;28;20053;-62
2022/04/15 02:54:24;;;;;;;10.82;4.28;;;;;;;15.00;69.67;101884.16;5056147;28;20057;-57
2022/04/15 02:56:51;;;;;;;11.32;4.32;;;;;;;14.99;69.67;101888.91;5056242;28;20080;-57
2022/04/15 02:59:20;;;;;;;8.73;3.95;;;;;;;14.81;70.72;101900.16;5056039;28;20060;-60
2022/04/15 03:01:49;;;;;;;9.68;3.85;;;;;;;14.81;70.37;101887.13;5063812;28;20052;-60
2022/04/15 03:04:17;;;;;;;9.73;3.83;;;;;;;14.80;70.04;101890.22;5055746;28;20064;-57
2022/04/15 03:06:44;;;;;;;10.00;4.43;;;;;;;14.74;70.76;101889.50;5068057;28;20045;-58
2022/04/15 03:09:12;;;;;;;10.75;4.10;;;;;;;14.37;72.35;101884.25;5068220;28;20048;-57
2022/04/15 03:11:39;;;;;;;14.65;4.20;;;;;;;14.56;71.75;101891.28;5062242;28;20049;-56
2022/04/15 03:14:07;;;;;;;11.95;4.75;;;;;;;14.82;70.88;101899.84;5056110;28;20156;-54
2022/04/15 03:16:34;;;;;;;11.88;4.47;;;;;;;14.68;71.07;101895.50;5061591;28;20052;-62
2022/04/15 03:19:02;;;;;;;8.13;4.30;;;;;;;14.59;71.43;101887.88;5079661;28;20057;-63
2022/04/15 03:21:30;;;;;;;9.80;4.50;;;;;;;14.60;71.31;101891.50;5055708;28;20049;-61
2022/04/15 03:23:57;;;;;;;8.90;4.03;;;;;;;14.69;71.08;101897.94;5055370;28;20124;-61
2022/04/15 03:26:24;;;;;;;8.95;4.20;;;;;;;14.42;72.15;101893.28;5055192;28;20057;-61
2022/04/15 03:28:52;;;;;;;13.38;4.20;;;;;;;14.57;71.53;101894.91;5061518;28;20052;-61
2022/04/15 03:31:19;;;;;;;9.05;4.47;;;;;;;14.42;72.63;101893.28;5055152;28;20566;-61
2022/04/15 03:33:54;;;;;;;9.52;3.97;;;;;;;14.33;72.63;101895.13;5055700;28;20056;-60
2022/04/15 03:36:22;;;;;;;7.13;3.72;;;;;;;14.22;72.79;101909.50;5062688;28;20041;-58
2022/04/15 03:38:49;;;;;;;11.77;4.38;;;;;;;14.22;72.83;101901.16;5062728;28;20048;-55
2022/04/15 03:41:16;;;;;;;13.27;4.40;;;;;;;14.30;72.58;101900.47;5060182;28;20399;-59
2022/04/15 03:43:43;;;;;;;12.27;4.60;;;;;;;14.23;72.60;101895.31;5063561;28;20052;-57
2022/04/15 03:46:11;;;;;;;9.05;4.20;;;;;;;14.18;73.19;101908.44;5054663;28;20047;-56
2022/04/15 03:48:38;;;;;;;9.07;4.28;;;;;;;14.32;72.67;101896.28;5054184;28;20053;-57
2022/04/15 03:51:07;;;;;;;7.78;4.05;;;;;;;14.13;73.00;101903.03;5056943;28;20053;-57
2022/04/15 03:53:35;;;;;;;9.57;4.30;;;;;;;14.19;73.01;101891.50;5055011;28;20053;-60
2022/04/15 03:56:04;;;;;;;7.00;4.15;;;;;;;14.14;73.25;101904.69;5052835;28;20048;-61
2022/04/15 03:58:31;;;;;;;8.00;4.40;;;;;;;13.96;73.72;101913.91;5070085;28;20057;-60
2022/04/15 04:00:59;;;;;;;7.15;4.03;;;;;;;13.63;75.76;101906.78;5066400;28;20052;-61
2022/04/15 04:03:27;;;;;;;10.20;4.28;;;;;;;13.87;75.36;101907.44;5054399;28;20056;-61
2022/04/15 04:05:54;;;;;;;9.43;4.45;;;;;;;13.99;74.44;101910.50;5068159;28;20064;-61
2022/04/15 04:08:21;;;;;;;13.40;4.47;;;;;;;13.88;74.80;101906.31;5055908;28;20052;-60
2022/04/15 04:10:49;;;;;;;9.30;4.20;;;;;;;13.84;74.92;101913.59;5054170;28;20049;-56
2022/04/15 04:13:16;;;;;;;12.57;4.50;;;;;;;13.68;75.58;101907.50;5066926;28;20103;-61
2022/04/15 04:15:44;;;;;;;11.27;4.40;;;;;;;13.63;76.06;101915.09;5069313;28;20064;-54
2022/04/15 04:18:14;;;;;;;7.90;4.00;;;;;;;13.89;75.36;101924.56;5066095;28;20048;-57
2022/04/15 04:20:41;;;;;;;10.23;4.38;;;;;;;14.02;74.71;101919.03;5069909;28;20056;-58
2022/04/15 04:23:09;;;;;;;10.15;4.13;;;;;;;14.05;74.55;101920.38;5057511;28;20496;-58
2022/04/15 04:25:36;;;;;;;10.80;3.92;;;;;;;14.04;73.93;101918.72;5056897;28;20151;-59
2022/04/15 04:28:04;;;;;;;9.88;4.85;;;;;;;13.87;74.91;101922.09;5054055;28;20053;-56
2022/04/15 04:30:31;;;;;;;8.63;4.88;;;;;;;13.76;75.15;101934.50;5056062;28;20049;-55
2022/04/15 04:32:59;;;;;;;9.88;4.38;;;;;;;13.72;75.46;101925.13;5053768;28;20056;-55
2022/04/15 04:35:27;;;;;;;11.32;5.15;;;;;;;13.70;75.34;101935.72;5054763;28;20053;-56
2022/04/15 04:37:54;;;;;;;13.43;4.88;;;;;;;13.70;75.93;101932.97;5054266;28;20059;-59
2022/04/15 04:40:22;;;;;;;11.48;4.75;;;;;;;13.71;75.61;101936.53;5054321;28;20041;-58
2022/04/15 04:42:50;;;;;;;8.82;4.28;;;;;;;13.73;75.33;101935.09;5051612;28;20059;-56
2022/04/15 04:45:18;;;;;;;8.88;4.68;;;;;;;13.84;75.07;101933.81;5061582;28;20380;-57
2022/04/15 04:47:46;;;;;;;13.35;4.43;;;;;;;13.84;74.58;101933.81;5057598;28;20048;-62
2022/04/15 04:50:14;;;;;;;8.82;4.20;;;;;;;13.69;75.44;101938.78;5043171;28;20049;-61
2022/04/15 04:52:42;;;;;;;12.20;4.70;;;;;;;13.66;75.77;101936.63;5056159;28;20041;-61
2022/04/15 04:55:09;;;;;;;10.18;4.30;;;;;;;13.74;75.55;101938.72;5056639;28;20491;-61
2022/04/15 04:57:38;;;;;;;9.30;4.38;;;;;;;13.94;74.26;101941.09;5053680;28;20049;-57
2022/04/15 05:00:08;;;;;;;9.82;4.28;;;;;;;13.90;74.52;101943.63;5054350;28;20416;-55
2022/04/15 05:02:35;;;;;;;9.73;4.60;;;;;;;13.70;74.85;101949.56;5063530;28;20515;-60
2022/04/15 05:05:04;;;;;;;10.10;4.60;;;;;;;13.70;75.29;101954.28;5053719;28;20048;-64
2022/04/15 05:07:31;;;;;;;11.88;4.60;;;;;;;13.70;74.87;101954.28;5067149;28;20135;-60
2022/04/15 05:10:05;;;;;;;12.02;4.35;;;;;;;13.66;75.53;101964.31;5058642;28;20048;-61
2022/04/15 05:12:32;;;;;;;10.90;4.55;;;;;;;13.77;74.25;101958.31;5052274;28;20494;-58
2022/04/15 05:15:00;;;;;;;10.35;4.50;;;;;;;13.88;74.68;101964.47;5069136;28;20045;-56
2022/04/15 05:17:27;;;;;;;12.40;4.70;;;;;;;13.73;74.76;101964.75;5053817;28;20049;-62
2022/04/15 05:19:54;;;;;;;10.60;4.65;;;;;;;14.08;73.42;101964.91;5055721;28;20044;-61
2022/04/15 05:22:23;;;;;;;10.63;4.35;;;;;;;13.78;74.60;101967.41;5057983;28;20396;-62
2022/04/15 05:24:52;;;;;;;10.45;4.53;;;;;;;13.84;74.16;101971.75;5053969;28;20053;-58
2022/04/15 05:27:20;;;;;;;14.10;4.80;;;;;;;13.97;73.78;101971.75;5071279;28;20082;-62
2022/04/15 05:29:47;;;;;;;9.57;4.60;;;;;;;13.68;74.83;101973.13;5058137;28;20140;-61
2022/04/15 05:32:14;;;;;;;12.10;4.60;;;;;;;13.84;74.26;101972.56;5067740;28;20044;-60
2022/04/15 05:34:46;;;;;;;11.80;5.25;;;;;;;13.91;74.08;101980.47;5057517;28;20046;-58
2022/04/15 05:37:13;;;;;;;16.50;5.30;;;;;;;14.09;72.79;101979.56;5061406;28;20053;-57
2022/04/15 05:39:40;;;;;;;12.63;5.57;;;;;;;13.94;74.10;101980.69;5061092;28;20531;-59
2022/04/15 05:42:07;;;;;;;11.20;4.85;;;;;;;14.15;73.17;101981.97;5048879;28;20056;-59
2022/04/15 05:44:35;;;;;;;14.85;5.20;;;;;;;13.83;73.92;101984.75;5057306;28;20072;-59
2022/04/15 05:47:02;;;;;;;14.05;5.72;;;;;;;13.88;74.15;101990.22;5057203;28;20148;-55
2022/04/15 05:49:31;;;;;;;14.88;6.38;;;;;;;13.83;73.95;101986.69;5057082;28;20059;-62
2022/04/15 05:51:58;;;;;;;9.77;5.97;;;;;;;14.24;72.96;101993.16;5057212;28;20118;-56
2022/04/15 05:54:25;;;;;;;14.48;6.28;;;;;;;13.92;73.89;101990.41;5057307;28;20049;-63
2022/04/15 05:56:53;;;;;;;12.48;6.40;;;;;;;13.86;73.78;101986.91;5039111;28;20057;-62
2022/04/15 05:59:23;;;;;;;13.43;6.25;;;;;;;13.82;74.09;101991.44;5057092;28;20052;-63
2022/04/15 06:01:51;;;;;;;;;;;;;;;13.82;73.95;101991.44;5057593;28;20052;-61
2022/04/15 06:04:18;;;;;;;13.70;6.75;;;;;;;13.76;74.30;101995.41;5072373;28;19928;-61
2022/04/15 06:06:47;;;;;;;16.00;7.20;;;;;;;13.73;74.62;101997.97;5059653;28;20064;-61
2022/04/15 06:09:14;;;;;;;14.55;7.03;;;;;;;13.74;74.51;101994.88;5061418;28;20049;-57
2022/04/15 06:11:42;;;;;;;13.35;6.13;;;;;;;13.79;74.55;102002.31;5056774;28;20037;-57
2022/04/15 06:14:09;;;;;;;15.05;6.22;;;;;;;13.58;75.12;102004.59;5057470;28;20053;-58
2022/04/15 06:16:42;;;;;;;14.98;6.78;;;;;;;13.57;75.24;102009.31;5057108;28;20056;-58
2022/04/15 06:19:09;;;;;;;13.88;6.18;;;;;;;13.63;74.98;102012.81;5055422;28;20052;-56
2022/04/15 06:21:51;;;;;;;16.25;6.50;;;;;;;13.53;75.33;102013.78;5053332;28;20052;-55
2022/04/15 06:24:18;;;;;;;12.88;6.85;;;;;;;13.47;75.45;102015.03;5054979;28;20068;-58
2022/04/15 06:26:45;;;;;;;15.77;7.40;;;;;;;13.45;75.44;102022.78;5056409;28;20056;-58
2022/04/15 06:29:15;;;;;;;20.73;7.40;;;;;;;13.43;75.79;102029.75;5056854;28;20049;-57
2022/04/15 06:31:43;;;;;;;20.35;8.00;;;;;;;13.45;75.85;102027.50;5054430;28;20063;-58
2022/04/15 06:34:11;;;;;;;14.32;7.15;;;;;;;13.57;75.26;102019.56;5055310;28;20080;-56
2022/04/15 06:36:41;;;;;;;15.32;7.65;;;;;;;13.64;75.66;102021.94;5080395;28;20048;-56
2022/04/15 06:39:10;;;;;;;16.38;7.68;;;;;;;14.07;74.14;102020.63;5064160;28;20044;-61
2022/04/15 06:41:39;;;;;;;17.27;7.57;;;;;;;14.19;73.03;102027.31;5057389;28;20045;-61
2022/04/15 06:44:06;;;;;;;14.38;7.65;;;;;;;13.80;74.02;102034.41;5063890;28;20061;-62
2022/04/15 06:46:33;;;;;;;17.83;8.25;;;;;;;13.75;74.83;102031.72;5061971;28;20057;-63
2022/04/15 06:49:01;;;;;;;15.65;7.57;;;;;;;13.49;76.14;102039.63;5058856;28;20055;-62
2022/04/15 06:51:28;;;;;;;17.10;7.55;;;;;;;13.70;75.01;102034.56;5065339;28;20166;-61
2022/04/15 06:53:55;;;;;;;14.73;8.30;;;;;;;13.90;74.85;102031.44;5066320;28;20047;-62
2022/04/15 06:56:22;;;;;;;15.82;7.75;;;;;;;14.34;73.29;102034.53;5048623;28;20143;-61
2022/04/15 06:58:50;;;;;;;17.73;8.20;;;;;;;14.29;72.71;102031.88;5059809;28;20049;-61
2022/04/15 07:01:17;;;;;;;18.33;8.65;;;;;;;14.12;73.25;102031.63;5052970;28;20045;-64
2022/04/15 07:03:44;;;;;;;20.88;9.15;;;;;;;14.21;72.92;102033.38;5056683;28;20083;-61
2022/04/15 07:06:11;;;;;;;22.42;8.80;;;;;;;13.95;73.62;102028.59;5063228;28;20065;-62
2022/04/15 07:08:39;;;;;;;18.55;8.70;;;;;;;14.06;73.65;102033.66;5073237;28;20045;-58
2022/04/15 07:11:06;;;;;;;18.05;8.20;;;;;;;14.54;72.44;102034.13;5066941;28;20052;-59
2022/04/15 07:13:38;;;;;;;15.18;7.95;;;;;;;14.48;71.61;102038.16;5065710;28;20044;-59
2022/04/15 07:16:06;;;;;;;18.70;7.53;;;;;;;14.31;72.05;102038.75;5076271;28;20052;-60
2022/04/15 07:18:33;;;;;;;15.65;7.40;;;;;;;14.74;71.85;102041.22;5064078;28;20422;-56
2022/04/15 07:21:00;;;;;;;14.60;7.05;;;;;;;14.97;71.23;102040.19;5057868;28;20061;-56
2022/04/15 07:23:28;;;;;;;12.63;7.22;;;;;;;15.02;70.27;102045.63;5053152;28;20052;-59
2022/04/15 07:25:55;;;;;;;16.27;7.10;;;;;;;15.13;70.31;102041.50;5054532;28;20053;-53
2022/04/15 07:28:23;;;;;;;14.13;7.07;;;;;;;15.05;70.85;102037.50;5060222;28;20072;-57
2022/04/15 07:30:50;;;;;;;21.33;6.88;;;;;;;15.29;70.71;102037.25;5057594;28;20053;-58
2022/04/15 07:33:17;;;;;;;15.80;7.40;;;;;;;15.53;69.21;102043.34;5046073;28;20416;-53
2022/04/15 07:35:45;;;;;;;23.77;7.95;;;;;;;15.58;66.64;102046.00;5080823;28;20057;-59
2022/04/15 07:38:12;;;;;;;17.05;7.47;;;;;;;15.38;67.75;102043.66;5065398;28;20045;-55
2022/04/15 07:40:39;;;;;;;13.07;6.82;;;;;;;15.35;66.62;102038.75;5040549;28;20069;-55
2022/04/15 07:43:06;;;;;;;13.65;6.28;;;;;;;15.13;67.19;102044.25;5049432;28;20088;-57
2022/04/15 07:45:34;;;;;;;13.23;6.50;;;;;;;15.17;66.63;102046.09;5064800;28;20044;-55
2022/04/15 07:48:01;;;;;;;11.75;6.00;;;;;;;14.77;67.36;102044.19;5069577;28;20517;-57
2022/04/15 07:50:32;;;;;;;14.23;6.13;;;;;;;15.32;68.03;102036.59;5056415;28;20056;-54
2022/04/15 07:53:07;;;;;;;11.13;5.53;;;;;;;15.72;65.58;102038.44;5060402;28;20553;-56
2022/04/15 07:55:34;;;;;;;10.27;6.30;;;;;;;15.39;65.09;102032.28;5060951;28;20079;-57
2022/04/15 07:58:02;;;;;;;8.98;6.00;;;;;;;15.48;65.95;102046.25;5053862;28;20053;-56
2022/04/15 08:00:34;;;;;;;12.63;6.60;;;;;;;16.16;63.76;102043.13;5061198;28;20048;-56
2022/04/15 08:03:01;;;;;;;11.50;6.70;;;;;;;15.87;64.10;102038.03;5086876;28;20051;-59
2022/04/15 08:05:29;;;;;;;16.75;5.75;;;;;;;15.74;65.00;102045.31;5053761;28;20037;-55
2022/04/15 08:07:56;;;;;;;14.60;7.15;;;;;;;15.86;64.51;102041.97;5055990;28;20119;-54
2022/04/15 08:10:23;;;;;;;15.25;6.30;;;;;;;15.97;65.03;102042.53;5067513;28;20542;-55
2022/04/15 08:12:51;;;;;;;13.82;6.60;;;;;;;16.10;64.12;102038.84;5052775;28;20053;-57
2022/04/15 08:15:18;;;;;;;15.15;7.10;;;;;;;16.00;63.28;102045.50;5068063;28;20052;-60
2022/04/15 08:17:46;;;;;;;16.25;7.70;;;;;;;16.16;63.66;102048.69;5050967;28;20049;-58
2022/04/15 08:20:16;;;;;;;16.15;7.60;;;;;;;16.07;63.55;102042.25;5070534;28;20045;-55
2022/04/15 08:22:44;;;;;;;18.65;7.68;;;;;;;16.18;63.35;102041.66;5057401;28;20052;-56
2022/04/15 08:25:11;;;;;;;19.58;7.15;;;;;;;16.23;63.06;102049.06;5062995;28;20045;-58
2022/04/15 08:27:38;;;;;;;13.02;7.18;;;;;;;16.09;63.30;102049.13;5067033;28;20052;-55
2022/04/15 08:30:06;;;;;;;27.40;8.20;;;;;;;15.93;63.54;102042.34;5059495;28;20056;-57
2022/04/15 08:32:34;;;;;;;15.85;7.15;;;;;;;15.79;64.03;102045.16;5058954;28;20415;-56
2022/04/15 08:35:11;;;;;;;20.10;7.90;;;;;;;16.07;63.03;102047.81;5060761;28;20052;-55
2022/04/15 08:37:39;;;;;;;15.13;7.35;;;;;;;16.20;62.84;102047.72;5050465;28;20045;-59
2022/04/15 08:40:07;;;;;;;13.77;6.82;;;;;;;15.90;63.36;102037.41;5052283;28;20048;-55
2022/04/15 08:42:35;;;;;;;13.95;6.35;;;;;;;16.32;62.39;102055.50;5047574;28;20044;-54
2022/04/15 08:45:02;;;;;;;13.00;6.32;;;;;;;16.55;61.71;102045.97;5045126;28;20068;-57
2022/04/15 08:47:30;;;;;;;15.05;5.75;;;;;;;16.55;59.20;102051.53;5044211;28;20049;-54
2022/04/15 08:49:59;;;;;;;16.25;5.13;;;;;;;16.57;59.08;102046.47;5056395;28;20053;-56
2022/04/15 08:52:27;;;;;;;15.35;4.25;;;;;;;17.10;59.25;102049.06;5063229;28;20052;-57
2022/04/15 08:54:54;;;;;;;14.60;4.25;;;;;;;17.00;56.91;102050.19;5084453;28;20055;-57
2022/04/15 08:57:22;;;;;;;12.85;4.78;;;;;;;16.51;58.08;102058.88;5047805;28;20041;-57
2022/04/15 08:59:50;;;;;;;12.98;4.05;;;;;;;16.65;57.63;102049.28;5052253;28;20041;-55
2022/04/15 09:02:33;;;;;;;10.88;4.35;;;;;;;16.40;58.24;102063.06;5051272;28;20173;-57
2022/04/15 09:05:02;;;;;;;16.92;5.90;;;;;;;16.46;59.04;102058.97;5052252;28;20048;-53
2022/04/15 09:07:30;;;;;;;11.70;5.00;;;;;;;16.25;59.11;102060.69;5054888;28;20057;-53
2022/04/15 09:10:05;;;;;;;10.90;5.13;;;;;;;16.44;59.09;102059.28;5050510;28;20059;-55
2022/04/15 09:12:35;;;;;;;15.02;5.25;;;;;;;16.57;59.13;102057.59;5051642;28;20040;-55
2022/04/15 09:15:09;;;;;;;17.02;6.68;;;;;;;16.81;58.59;102061.59;5046398;28;20052;-54
2022/04/15 09:17:49;;;;;;;15.93;5.40;;;;;;;16.68;58.29;102061.72;5048398;28;20056;-58
2022/04/15 09:20:18;;;;;;;14.40;5.63;;;;;;;16.91;58.14;102060.50;5060792;28;20751;-55
2022/04/15 09:22:46;;;;;;;16.92;5.63;;;;;;;16.95;57.97;102061.47;5051257;28;20071;-56
2022/04/15 09:25:14;;;;;;;12.98;4.57;;;;;;;17.19;57.80;102061.84;5048946;28;20059;-57
2022/04/15 09:27:41;;;;;;;13.27;4.70;;;;;;;17.32;56.72;102063.69;5048814;28;20048;-56
2022/04/15 09:30:08;;;;;;;14.05;5.13;;;;;;;16.91;57.40;102065.25;5054985;28;20049;-57
2022/04/15 09:32:39;;;;;;;13.02;4.28;;;;;;;17.29;56.76;102066.31;5060100;28;20056;-58
2022/04/15 09:35:08;;;;;;;14.40;4.30;;;;;;;17.25;56.39;102060.56;5047980;28;20045;-55
2022/04/15 09:37:45;;;;;;;8.85;3.55;;;;;;;17.37;55.96;102068.25;5048194;28;20056;-57
2022/04/15 09:40:18;;;;;;;16.15;3.60;;;;;;;17.31;56.83;102064.00;5046520;28;20048;-55
2022/04/15 09:42:50;;;;;;;15.90;5.55;;;;;;;17.16;57.27;102062.50;5047954;28;20052;-55
2022/04/15 09:45:29;;;;;;;15.50;4.80;;;;;;;17.11;57.22;102062.66;5050272;28;20057;-55
2022/04/15 09:48:06;;;;;;;12.85;4.85;;;;;;;17.10;57.23;102063.81;5051920;28;20048;-57
2022/04/15 09:50:37;;;;;;;9.38;4.30;;;;;;;17.16;56.89;102058.91;5050081;28;20045;-57
2022/04/15 09:53:15;;;;;;;11.52;3.97;;;;;;;16.98;56.79;102069.16;5046153;28;20049;-57
2022/04/15 09:55:50;;;;;;;9.30;3.90;;;;;;;17.21;56.81;102064.34;5055416;28;20049;-57
2022/04/15 09:58:28;;;;;;;10.48;4.15;;;;;;;17.50;56.06;102058.97;5068297;28;20049;-59
2022/04/15 10:00:56;;;;;;;18.05;4.20;;;;;;;17.47;56.00;102051.28;5048623;28;20056;-56
2022/04/15 10:03:25;;;;;;;12.18;4.45;;;;;;;17.35;56.66;102051.88;5063544;28;20052;-61
2022/04/15 10:05:55;;;;;;;11.88;3.85;;;;;;;17.51;55.60;102046.69;5051328;28;20044;-58
2022/04/15 10:08:25;;;;;;;9.88;3.70;;;;;;;17.39;56.12;102052.88;5047598;28;20052;-63
2022/04/15 10:10:53;;;;;;;11.38;4.07;;;;;;;17.87;55.53;102049.91;5063232;28;20416;-56
2022/04/15 10:13:26;;;;;;;7.10;3.40;;;;;;;18.17;54.34;102046.09;5063326;28;20427;-57
2022/04/15 10:15:55;;;;;;;9.38;3.97;;;;;;;17.77;54.48;102045.53;5049792;28;21589;-54
2022/04/15 10:18:23;;;;;;;9.27;3.65;;;;;;;18.16;54.84;102041.69;5051224;28;20123;-54
2022/04/15 10:20:51;;;;;;;10.80;4.07;;;;;;;17.90;54.33;102049.28;5047878;28;20053;-56
2022/04/15 10:23:21;;;;;;;13.18;3.83;;;;;;;17.86;53.84;102049.13;5069397;28;20059;-55
2022/04/15 10:25:50;;;;;;;10.43;4.10;;;;;;;17.62;54.80;102042.44;5061730;28;20072;-54
2022/04/15 10:28:19;;;;;;;11.98;4.05;;;;;;;17.79;55.10;102045.19;5046670;28;20923;-56
2022/04/15 10:30:52;;;;;;;9.57;3.85;;;;;;;17.96;53.68;102045.16;5049306;28;20045;-55
2022/04/15 10:33:30;;;;;;;9.40;3.80;;;;;;;17.91;53.53;102036.97;5045479;28;20056;-57
2022/04/15 10:36:09;;;;;;;8.27;3.35;;;;;;;17.56;54.26;102027.84;5047633;28;20464;-54
2022/04/15 10:38:36;;;;;;;5.93;3.10;;;;;;;18.01;54.34;102028.25;5048949;28;20052;-57
2022/04/15 10:41:15;;;;;;;7.60;3.35;;;;;;;18.26;52.86;102030.16;5050021;28;20060;-58
2022/04/15 10:43:57;;;;;;;7.07;3.05;;;;;;;18.25;52.85;102027.72;5046514;28;20057;-60
2022/04/15 10:46:36;;;;;;;7.40;3.25;;;;;;;18.26;52.71;102026.53;5052660;28;20045;-59
2022/04/15 10:49:23;;;;;;;7.45;4.07;;;;;;;18.68;51.97;102031.16;5048313;28;20059;-56
2022/04/15 10:51:54;;;;;;;14.25;6.05;;;;;;;18.51;51.15;102028.47;5047648;28;20033;-52
2022/04/15 10:54:36;;;;;;;6.72;1.85;;;;;;;18.17;48.72;102023.78;5052554;28;20040;-57
2022/04/15 10:57:09;;;;;;;8.63;3.15;;;;;;;18.01;49.27;102031.03;5068533;28;20133;-57
2022/04/15 11:02:48;;;;;;;28.77;7.28;;;;;;;18.20;49.96;102027.91;5062891;28;20064;-54
2022/04/15 11:05:51;;;;;;;18.77;3.78;;;;;;;18.04;49.97;102015.63;5048157;28;20057;-53
2022/04/15 11:08:22;;;;;;;10.82;2.90;;;;;;;18.11;49.91;102015.94;5046022;28;20055;-57
2022/04/15 11:10:50;;;;;;;9.43;2.58;;;;;;;18.39;48.88;102020.78;5057057;28;20060;-56
2022/04/15 11:13:27;;;;;;;18.02;2.10;;;;;;;18.34;48.31;102014.56;5057038;28;20060;-57
2022/04/15 11:16:04;;;;;;;7.30;2.00;;;;;;;18.50;47.21;102013.69;5059307;28;20057;-59
2022/04/15 11:18:43;;;;;;;10.48;3.50;;;;;;;18.45;47.74;102015.84;5058839;28;20053;-61
2022/04/15 11:21:18;;;;;;;11.32;5.20;;;;;;;18.66;47.25;102016.72;5049222;28;20060;-58
2022/04/15 11:23:53;;;;;;;7.75;2.95;;;;;;;18.87;46.86;102023.16;5061839;28;20059;-59
2022/04/15 11:26:22;;;;;;;7.13;1.70;;;;;;;18.56;46.09;102014.31;5050594;28;20061;-57
2022/04/15 11:28:51;;;;;;;11.15;2.53;;;;;;;18.68;45.88;102020.81;5053162;28;20562;-56
2022/04/15 11:31:22;;;;;;;7.07;1.60;;;;;;;18.57;45.52;102011.19;5058654;28;20048;-54